createdAt,value
2017-08-07T00:00:40.530Z,998.81
2017-08-07T00:01:30.266Z,998.80
2017-08-07T00:02:30.435Z,998.80
2017-08-07T00:03:40.631Z,998.86
2017-08-07T00:04:40.497Z,998.89
2017-08-07T00:05:30.433Z,998.88
2017-08-07T00:06:30.313Z,998.82
2017-08-07T00:07:40.600Z,998.87
2017-08-07T00:08:40.548Z,998.86
2017-08-07T00:09:30.388Z,998.90
2017-08-07T00:10:30.651Z,998.92
2017-08-07T00:11:40.579Z,998.89
2017-08-07T00:12:40.519Z,998.85
2017-08-07T00:13:30.319Z,998.82
2017-08-07T00:14:30.275Z,998.80
2017-08-07T00:15:40.559Z,998.90
2017-08-07T00:16:40.512Z,998.89
2017-08-07T00:17:30.602Z,998.89
2017-08-07T00:18:30.332Z,998.86
2017-08-07T00:19:40.598Z,998.85
2017-08-07T00:20:40.946Z,998.88
2017-08-07T00:21:30.353Z,998.88
2017-08-07T00:22:40.537Z,998.83
2017-08-07T00:23:40.574Z,998.90
2017-08-07T00:24:30.313Z,998.81
2017-08-07T00:25:30.573Z,998.89
2017-08-07T00:26:40.632Z,998.90
2017-08-07T00:27:40.574Z,998.90
2017-08-07T00:28:30.297Z,998.83
2017-08-07T00:29:30.331Z,998.86
2017-08-07T00:30:40.554Z,998.87
2017-08-07T00:31:40.681Z,998.85
2017-08-07T00:32:30.610Z,998.88
2017-08-07T00:33:30.381Z,998.89
2017-08-07T00:34:40.590Z,998.88
2017-08-07T00:35:40.853Z,998.91
2017-08-07T00:36:30.332Z,998.90
2017-08-07T00:37:30.589Z,998.94
2017-08-07T00:38:40.567Z,998.83
2017-08-07T00:39:40.729Z,998.86
2017-08-07T00:40:30.707Z,998.91
2017-08-07T00:41:30.350Z,998.88
2017-08-07T00:42:40.640Z,998.87
2017-08-07T00:43:40.594Z,998.85
2017-08-07T00:44:30.395Z,998.82
2017-08-07T00:45:30.751Z,998.84
2017-08-07T00:46:40.611Z,998.82
2017-08-07T00:47:40.679Z,998.82
2017-08-07T00:48:30.417Z,998.85
2017-08-07T00:49:30.459Z,998.89
2017-08-07T00:50:41.012Z,998.79
2017-08-07T00:51:30.430Z,998.85
2017-08-07T00:52:30.381Z,998.82
2017-08-07T00:53:40.679Z,998.77
2017-08-07T00:54:40.650Z,998.80
2017-08-07T00:55:30.498Z,998.83
2017-08-07T00:56:30.569Z,998.85
2017-08-07T00:57:40.673Z,998.81
2017-08-07T00:58:40.657Z,998.84
2017-08-07T00:59:30.466Z,998.76
2017-08-07T01:03:04.158Z,998.75
2017-08-07T01:03:34.950Z,998.88
2017-08-07T01:04:42.648Z,998.89
2017-08-07T01:06:19.804Z,998.95
2017-08-07T01:06:50.581Z,998.84
2017-08-07T01:09:13.155Z,998.92
2017-08-07T01:09:43.968Z,998.87
2017-08-07T01:10:25.113Z,998.88
2017-08-07T01:11:01.999Z,998.83
2017-08-07T01:12:24.800Z,998.78
2017-08-07T01:12:55.478Z,998.91
2017-08-07T01:15:03.191Z,998.80
2017-08-07T01:15:34.135Z,998.87
2017-08-07T01:16:31.633Z,998.78
2017-08-07T01:18:17.983Z,998.76
2017-08-07T01:18:49.267Z,998.76
2017-08-07T01:21:40.875Z,998.72
2017-08-07T01:22:11.647Z,998.82
2017-08-07T01:23:09.594Z,998.72
2017-08-07T01:24:22.709Z,998.78
2017-08-07T01:24:53.479Z,998.79
2017-08-07T01:27:04.457Z,998.81
2017-08-07T01:27:35.264Z,998.71
2017-08-07T01:28:32.802Z,998.76
2017-08-07T01:30:27.628Z,998.78
2017-08-07T01:30:58.320Z,998.72
2017-08-07T01:33:01.931Z,998.68
2017-08-07T01:33:32.719Z,998.71
2017-08-07T01:34:13.818Z,998.74
2017-08-07T01:36:30.580Z,998.77
2017-08-07T01:37:01.262Z,998.73
2017-08-07T01:37:42.254Z,998.81
2017-08-07T01:38:19.249Z,998.81
2017-08-07T01:39:37.945Z,998.71
2017-08-07T01:40:08.629Z,998.66
2017-08-07T01:40:49.580Z,998.69
2017-08-07T01:41:36.688Z,998.66
2017-08-07T01:42:20.400Z,998.65
2017-08-07T01:42:51.390Z,998.67
2017-08-07T01:45:01.860Z,998.71
2017-08-07T01:45:32.837Z,998.72
2017-08-07T01:46:13.996Z,998.65
2017-08-07T01:47:01.105Z,998.72
2017-08-07T01:48:20.385Z,998.70
2017-08-07T01:49:01.380Z,998.59
2017-08-07T01:51:06.771Z,998.60
2017-08-07T01:51:37.454Z,998.68
2017-08-07T01:52:34.894Z,998.67
2017-08-07T01:54:31.658Z,998.63
2017-08-07T01:55:02.334Z,998.64
2017-08-07T01:57:34.883Z,998.71
2017-08-07T01:58:05.752Z,998.70
2017-08-07T01:59:03.122Z,998.66
2017-08-07T02:00:31.665Z,998.65
2017-08-07T02:01:02.338Z,998.67
2017-08-07T02:01:43.246Z,998.60
2017-08-07T02:02:20.243Z,998.61
2017-08-07T02:03:01.248Z,998.67
2017-08-07T02:03:32.255Z,998.64
2017-08-07T02:04:40.844Z,998.68
2017-08-07T02:05:40.800Z,998.68
2017-08-07T02:06:30.650Z,998.66
2017-08-07T02:07:30.618Z,998.60
2017-08-07T02:08:40.812Z,998.65
2017-08-07T02:09:41.075Z,998.67
2017-08-07T02:10:30.610Z,998.67
2017-08-07T02:11:30.758Z,998.66
2017-08-07T02:12:40.966Z,998.67
2017-08-07T02:13:40.805Z,998.66
2017-08-07T02:14:30.620Z,998.74
2017-08-07T02:15:30.674Z,998.71
2017-08-07T02:16:40.887Z,998.71
2017-08-07T02:17:40.942Z,998.79
2017-08-07T02:18:30.677Z,998.77
2017-08-07T02:19:30.953Z,998.76
2017-08-07T02:20:40.827Z,998.77
2017-08-07T02:21:40.952Z,998.75
2017-08-07T02:22:30.683Z,998.77
2017-08-07T02:23:30.742Z,998.79
2017-08-07T02:24:42.724Z,998.73
2017-08-07T02:25:30.659Z,998.73
2017-08-07T02:26:30.746Z,998.77
2017-08-07T02:27:40.922Z,998.72
2017-08-07T02:28:40.873Z,998.66
2017-08-07T02:29:30.719Z,998.64
2017-08-07T02:30:30.679Z,998.66
2017-08-07T02:31:40.865Z,998.68
2017-08-07T02:32:40.896Z,998.69
2017-08-07T02:33:30.639Z,998.76
2017-08-07T02:34:30.686Z,998.60
2017-08-07T02:35:40.875Z,998.67
2017-08-07T02:36:40.988Z,998.68
2017-08-07T02:37:30.801Z,998.68
2017-08-07T02:38:30.748Z,998.62
2017-08-07T02:39:41.245Z,998.69
2017-08-07T02:40:30.667Z,998.59
2017-08-07T02:41:30.714Z,998.61
2017-08-07T02:42:40.908Z,998.65
2017-08-07T02:43:40.983Z,998.65
2017-08-07T02:44:31.012Z,998.58
2017-08-07T02:45:30.749Z,998.67
2017-08-07T02:46:41.033Z,998.60
2017-08-07T02:47:40.983Z,998.68
2017-08-07T02:48:30.699Z,998.67
2017-08-07T02:49:30.853Z,998.68
2017-08-07T02:50:40.955Z,998.55
2017-08-07T02:51:41.006Z,998.68
2017-08-07T02:52:30.728Z,998.59
2017-08-07T02:53:30.802Z,998.55
2017-08-07T02:54:41.099Z,998.58
2017-08-07T02:55:40.959Z,998.55
2017-08-07T02:56:30.766Z,998.54
2017-08-07T02:57:30.714Z,998.51
2017-08-07T02:58:41.007Z,998.48
2017-08-07T02:59:41.245Z,998.52
2017-08-07T03:00:30.874Z,998.55
2017-08-07T03:01:30.730Z,998.46
2017-08-07T03:02:41.074Z,998.44
2017-08-07T03:03:41.304Z,998.46
2017-08-07T03:04:30.821Z,998.52
2017-08-07T03:05:41.014Z,998.56
2017-08-07T03:06:41.072Z,998.48
2017-08-07T03:07:30.796Z,998.45
2017-08-07T03:08:30.746Z,991.60
2017-08-07T03:09:41.038Z,998.46
2017-08-07T03:10:41.000Z,998.51
2017-08-07T03:11:30.831Z,998.48
2017-08-07T03:12:30.770Z,998.47
2017-08-07T03:13:41.059Z,998.48
2017-08-07T03:14:41.317Z,998.50
2017-08-07T03:15:30.854Z,998.44
2017-08-07T03:16:30.816Z,998.47
2017-08-07T03:17:41.024Z,998.43
2017-08-07T03:18:41.056Z,998.45
2017-08-07T03:19:30.871Z,998.40
2017-08-07T03:20:30.824Z,998.45
2017-08-07T03:21:41.094Z,998.51
2017-08-07T03:22:41.040Z,998.48
2017-08-07T03:23:30.891Z,998.47
2017-08-07T03:24:30.941Z,998.53
2017-08-07T03:25:41.136Z,998.50
2017-08-07T03:26:41.079Z,998.45
2017-08-07T03:27:30.914Z,998.44
2017-08-07T03:28:30.953Z,998.51
2017-08-07T03:29:41.357Z,998.58
2017-08-07T03:30:30.881Z,998.47
2017-08-07T03:31:30.846Z,998.48
2017-08-07T03:32:41.138Z,998.41
2017-08-07T03:33:41.107Z,998.34
2017-08-07T03:34:30.841Z,998.40
2017-08-07T03:35:30.924Z,998.50
2017-08-07T03:36:41.082Z,998.40
2017-08-07T03:37:41.135Z,998.48
2017-08-07T03:38:30.848Z,998.45
2017-08-07T03:39:31.187Z,998.56
2017-08-07T03:40:41.079Z,998.50
2017-08-07T03:41:41.112Z,998.51
2017-08-07T03:42:30.932Z,998.48
2017-08-07T03:43:30.895Z,998.52
2017-08-07T03:44:41.263Z,998.43
2017-08-07T03:45:30.885Z,998.47
2017-08-07T03:46:30.845Z,998.45
2017-08-07T03:47:46.106Z,998.44
2017-08-07T03:48:27.039Z,998.44
2017-08-07T03:50:20.176Z,998.41
2017-08-07T03:50:50.869Z,998.39
2017-08-07T03:51:48.372Z,998.49
2017-08-07T03:52:41.152Z,998.46
2017-08-07T03:53:30.994Z,998.49
2017-08-07T03:54:30.867Z,998.43
2017-08-07T03:55:41.426Z,998.43
2017-08-07T03:56:41.229Z,998.42
2017-08-07T03:57:31.009Z,998.45
2017-08-07T03:58:30.958Z,998.39
2017-08-07T03:59:41.148Z,998.35
2017-08-07T04:00:41.207Z,998.32
2017-08-07T04:01:31.030Z,998.33
2017-08-07T04:02:30.977Z,998.35
2017-08-07T04:03:41.153Z,998.33
2017-08-07T04:04:41.203Z,998.26
2017-08-07T04:05:31.044Z,998.32
2017-08-07T04:06:30.916Z,998.28
2017-08-07T04:07:41.185Z,998.23
2017-08-07T04:08:41.217Z,998.17
2017-08-07T04:09:30.947Z,998.22
2017-08-07T04:10:31.020Z,998.21
2017-08-07T04:11:41.200Z,998.27
2017-08-07T04:12:41.182Z,998.19
2017-08-07T04:13:30.985Z,998.16
2017-08-07T04:14:31.038Z,998.21
2017-08-07T04:15:41.249Z,998.18
2017-08-07T04:16:30.955Z,998.16
2017-08-07T04:17:31.035Z,998.16
2017-08-07T04:18:41.263Z,998.26
2017-08-07T04:19:41.214Z,998.17
2017-08-07T04:20:31.146Z,998.21
2017-08-07T04:21:31.037Z,998.17
2017-08-07T04:22:41.306Z,998.09
2017-08-07T04:23:41.285Z,998.15
2017-08-07T04:24:31.038Z,998.20
2017-08-07T04:25:31.289Z,998.11
2017-08-07T04:26:41.221Z,998.13
2017-08-07T04:27:41.280Z,998.10
2017-08-07T04:28:31.005Z,998.13
2017-08-07T04:29:30.985Z,998.14
2017-08-07T04:30:41.262Z,998.17
2017-08-07T04:31:41.319Z,998.14
2017-08-07T04:32:31.035Z,998.11
2017-08-07T04:33:31.188Z,998.15
2017-08-07T04:34:41.235Z,998.10
2017-08-07T04:35:41.287Z,998.11
2017-08-07T04:36:31.011Z,998.13
2017-08-07T04:37:41.294Z,998.18
2017-08-07T04:38:41.239Z,998.17
2017-08-07T04:39:30.994Z,998.16
2017-08-07T04:40:31.164Z,998.12
2017-08-07T04:41:41.296Z,998.08
2017-08-07T04:42:41.296Z,998.02
2017-08-07T04:43:31.076Z,998.14
2017-08-07T04:44:31.048Z,998.13
2017-08-07T04:45:41.426Z,998.16
2017-08-07T04:46:41.351Z,998.18
2017-08-07T04:47:31.199Z,998.12
2017-08-07T04:48:31.043Z,998.16
2017-08-07T04:49:41.423Z,998.12
2017-08-07T04:50:41.936Z,998.18
2017-08-07T04:51:31.166Z,998.15
2017-08-07T04:52:31.144Z,998.17
2017-08-07T04:53:41.383Z,998.13
2017-08-07T04:54:41.449Z,998.12
2017-08-07T04:55:31.316Z,998.17
2017-08-07T04:56:31.188Z,998.10
2017-08-07T04:57:41.411Z,998.09
2017-08-07T04:58:41.384Z,998.10
2017-08-07T04:59:31.182Z,998.05
2017-08-07T05:00:31.087Z,998.07
2017-08-07T05:01:41.355Z,998.08
2017-08-07T05:02:41.452Z,998.06
2017-08-07T05:03:31.158Z,998.05
2017-08-07T05:04:31.137Z,998.05
2017-08-07T05:05:41.478Z,998.06
2017-08-07T05:06:31.195Z,998.02
2017-08-07T05:07:31.201Z,998.02
2017-08-07T05:08:41.500Z,998.06
2017-08-07T05:09:41.507Z,998.06
2017-08-07T05:10:31.231Z,998.03
2017-08-07T05:11:31.241Z,998.05
2017-08-07T05:12:41.443Z,998.02
2017-08-07T05:13:41.455Z,998.01
2017-08-07T05:14:31.187Z,998.01
2017-08-07T05:15:31.181Z,998.07
2017-08-07T05:16:41.554Z,998.04
2017-08-07T05:17:41.546Z,998.02
2017-08-07T05:18:31.234Z,998.01
2017-08-07T05:19:31.178Z,998.08
2017-08-07T05:20:41.514Z,998.02
2017-08-07T05:21:41.766Z,998.00
2017-08-07T05:22:31.223Z,997.99
2017-08-07T05:23:31.168Z,997.97
2017-08-07T05:24:41.593Z,998.02
2017-08-07T05:25:41.535Z,997.96
2017-08-07T05:26:31.206Z,997.99
2017-08-07T05:27:41.515Z,998.02
2017-08-07T05:28:41.464Z,997.99
2017-08-07T05:29:31.227Z,998.07
2017-08-07T05:30:31.199Z,998.04
2017-08-07T05:31:41.674Z,998.06
2017-08-07T05:32:41.571Z,998.02
2017-08-07T05:33:31.284Z,998.00
2017-08-07T05:34:31.258Z,997.98
2017-08-07T05:35:41.692Z,998.05
2017-08-07T05:36:41.563Z,998.13
2017-08-07T05:37:31.243Z,998.03
2017-08-07T05:38:31.314Z,998.00
2017-08-07T05:39:41.648Z,998.00
2017-08-07T05:40:41.596Z,998.01
2017-08-07T05:41:31.262Z,998.03
2017-08-07T05:42:31.300Z,998.02
2017-08-07T05:43:41.531Z,998.02
2017-08-07T05:44:41.496Z,998.02
2017-08-07T05:45:31.275Z,998.05
2017-08-07T05:46:32.373Z,998.02
2017-08-07T05:47:41.719Z,998.00
2017-08-07T05:48:41.926Z,997.99
2017-08-07T05:49:31.331Z,998.01
2017-08-07T05:50:31.345Z,997.99
2017-08-07T05:51:41.551Z,997.94
2017-08-07T07:27:40.070Z,997.40
2017-08-07T07:28:11.564Z,997.38
2017-08-07T07:28:53.787Z,997.38
2017-08-07T07:29:31.782Z,997.37
2017-08-07T07:30:42.254Z,997.39
2017-08-07T07:31:42.251Z,997.28
2017-08-07T07:32:31.937Z,997.40
2017-08-07T07:33:31.908Z,997.38
2017-08-07T07:34:42.382Z,997.40
2017-08-07T07:35:42.256Z,997.40
2017-08-07T07:36:31.812Z,997.37
2017-08-07T07:37:31.933Z,997.35
2017-08-07T07:38:42.295Z,997.42
2017-08-07T07:39:42.334Z,997.44
2017-08-07T07:40:31.885Z,997.32
2017-08-07T07:41:31.970Z,997.32
2017-08-07T07:42:42.386Z,997.34
2017-08-07T07:43:42.302Z,997.31
2017-08-07T07:44:31.974Z,997.30
2017-08-07T07:45:31.923Z,997.30
2017-08-07T07:46:42.457Z,997.26
2017-08-07T07:47:42.402Z,997.24
2017-08-07T07:48:31.880Z,997.23
2017-08-07T07:49:42.322Z,997.27
2017-08-07T07:50:42.287Z,997.22
2017-08-07T07:51:31.854Z,997.16
2017-08-07T07:52:32.006Z,997.20
2017-08-07T07:53:42.245Z,997.10
2017-08-07T07:54:42.313Z,997.20
2017-08-07T07:55:31.893Z,997.19
2017-08-07T07:56:31.945Z,997.20
2017-08-07T07:57:42.421Z,997.17
2017-08-07T07:58:31.881Z,997.17
2017-08-07T07:59:31.915Z,997.15
2017-08-07T08:00:42.671Z,997.15
2017-08-07T08:01:31.934Z,997.18
2017-08-07T08:02:32.113Z,997.10
2017-08-07T08:03:42.378Z,997.12
2017-08-07T08:04:42.361Z,997.08
2017-08-07T08:05:32.042Z,997.09
2017-08-07T08:06:31.985Z,997.06
2017-08-07T08:07:42.475Z,997.02
2017-08-07T08:08:42.302Z,997.10
2017-08-07T08:09:32.023Z,997.03
2017-08-07T08:10:32.043Z,996.95
2017-08-07T08:11:42.680Z,997.02
2017-08-07T08:12:42.436Z,997.03
2017-08-07T08:13:32.002Z,996.99
2017-08-07T08:14:31.950Z,996.94
2017-08-07T08:15:42.487Z,996.99
2017-08-07T08:16:42.558Z,996.96
2017-08-07T08:17:32.000Z,996.95
2017-08-07T08:18:31.964Z,996.99
2017-08-07T08:19:42.317Z,996.95
2017-08-07T08:20:42.424Z,996.96
2017-08-07T08:21:32.128Z,996.90
2017-08-07T08:22:32.014Z,996.96
2017-08-07T08:23:42.376Z,997.01
2017-08-07T08:24:42.338Z,996.90
2017-08-07T08:25:32.038Z,996.98
2017-08-07T08:26:32.116Z,996.93
2017-08-07T08:27:42.358Z,996.86
2017-08-07T08:28:42.366Z,996.93
2017-08-07T08:29:32.044Z,996.81
2017-08-07T08:30:32.021Z,996.84
2017-08-07T08:31:42.486Z,996.95
2017-08-07T08:32:42.474Z,996.89
2017-08-07T08:33:31.957Z,996.87
2017-08-07T08:34:32.047Z,996.90
2017-08-07T08:35:42.464Z,996.87
2017-08-07T08:36:42.536Z,996.82
2017-08-07T08:37:32.065Z,996.87
2017-08-07T08:38:32.096Z,996.87
2017-08-07T08:39:42.464Z,996.81
2017-08-07T08:40:42.520Z,996.80
2017-08-07T08:41:32.106Z,996.79
2017-08-07T08:42:32.075Z,996.85
2017-08-07T08:43:42.401Z,996.80
2017-08-07T08:44:42.442Z,996.75
2017-08-07T08:45:32.104Z,996.79
2017-08-07T08:46:32.137Z,996.72
2017-08-07T08:47:42.466Z,996.68
2017-08-07T08:48:42.508Z,996.71
2017-08-07T08:49:32.047Z,996.64
2017-08-07T08:50:32.074Z,996.66
2017-08-07T08:51:42.589Z,996.65
2017-08-07T08:52:32.096Z,996.63
2017-08-07T08:53:32.115Z,996.77
2017-08-07T08:54:42.754Z,996.69
2017-08-07T08:55:32.051Z,996.58
2017-08-07T08:56:32.199Z,996.60
2017-08-07T08:57:42.519Z,996.58
2017-08-07T08:58:42.553Z,996.56
2017-08-07T08:59:32.191Z,996.54
2017-08-07T09:00:42.512Z,996.62
2017-08-07T09:01:42.602Z,996.55
2017-08-07T09:02:32.101Z,996.60
2017-08-07T09:03:32.100Z,996.59
2017-08-07T09:04:42.532Z,996.59
2017-08-07T09:05:42.506Z,996.61
2017-08-07T09:06:32.198Z,996.53
2017-08-07T09:07:32.166Z,996.52
2017-08-07T09:08:42.524Z,996.55
2017-08-07T09:09:42.505Z,996.57
2017-08-07T09:10:32.097Z,996.57
2017-08-07T09:11:32.171Z,996.51
2017-08-07T09:12:42.530Z,996.54
2017-08-07T09:13:47.553Z,996.46
2017-08-07T09:14:32.234Z,996.48
2017-08-07T09:15:42.526Z,996.49
2017-08-07T09:16:42.798Z,996.48
2017-08-07T09:17:32.057Z,996.41
2017-08-07T09:18:42.501Z,996.37
2017-08-07T09:19:42.589Z,996.44
2017-08-07T09:20:32.108Z,996.47
2017-08-07T09:21:32.201Z,996.37
2017-08-07T09:22:42.600Z,996.38
2017-08-07T09:23:42.599Z,996.39
2017-08-07T09:24:32.220Z,996.38
2017-08-07T09:25:32.234Z,996.40
2017-08-07T09:26:42.655Z,996.38
2017-08-07T09:27:32.287Z,996.37
2017-08-07T09:28:32.214Z,996.36
2017-08-07T09:29:42.618Z,996.41
2017-08-07T09:30:42.547Z,996.33
2017-08-07T09:31:32.175Z,996.26
2017-08-07T09:32:32.308Z,996.28
2017-08-07T09:33:42.615Z,996.36
2017-08-07T09:34:42.577Z,996.31
2017-08-07T09:35:32.205Z,996.42
2017-08-07T09:36:32.234Z,996.27
2017-08-07T09:37:42.653Z,996.30
2017-08-07T09:38:42.557Z,996.31
2017-08-07T09:39:32.180Z,996.32
2017-08-07T09:40:32.169Z,996.27
2017-08-07T09:41:42.643Z,996.19
2017-08-07T09:42:42.763Z,996.23
2017-08-07T09:43:32.215Z,996.26
2017-08-07T09:44:32.189Z,996.14
2017-08-07T09:45:42.671Z,996.21
2017-08-07T09:46:42.648Z,996.21
2017-08-07T09:47:32.449Z,996.20
2017-08-07T09:48:32.205Z,996.22
2017-08-07T09:49:42.671Z,996.19
2017-08-07T09:50:42.660Z,996.22
2017-08-07T09:51:32.244Z,996.12
2017-08-07T09:52:32.354Z,996.22
2017-08-07T09:53:42.628Z,996.07
2017-08-07T09:54:42.658Z,996.15
2017-08-07T09:55:32.298Z,996.06
2017-08-07T09:56:32.357Z,996.06
2017-08-07T09:57:42.796Z,996.12
2017-08-07T09:58:42.627Z,995.99
2017-08-07T09:59:32.268Z,995.97
2017-08-07T10:00:32.409Z,996.06
2017-08-07T10:01:42.725Z,996.01
2017-08-07T10:02:42.740Z,995.96
2017-08-07T10:03:32.255Z,995.96
2017-08-07T10:04:32.298Z,995.87
2017-08-07T10:05:42.715Z,995.92
2017-08-07T10:06:42.823Z,995.96
2017-08-07T10:07:32.363Z,995.86
2017-08-07T10:08:32.295Z,995.89
2017-08-07T10:09:42.760Z,995.89
2017-08-07T10:10:42.747Z,995.92
2017-08-07T10:11:32.324Z,995.85
2017-08-07T10:12:32.429Z,995.84
2017-08-07T10:13:42.732Z,995.81
2017-08-07T10:14:42.716Z,995.86
2017-08-07T10:15:32.308Z,995.83
2017-08-07T10:16:32.363Z,995.80
2017-08-07T10:17:42.817Z,995.87
2017-08-07T10:18:32.368Z,995.75
2017-08-07T10:19:32.318Z,995.79
2017-08-07T10:20:42.771Z,995.84
2017-08-07T10:21:42.682Z,995.81
2017-08-07T10:22:32.409Z,995.75
2017-08-07T10:23:32.324Z,995.79
2017-08-07T10:24:42.715Z,995.69
2017-08-07T10:25:42.748Z,995.76
2017-08-07T10:26:32.370Z,995.77
2017-08-07T10:27:32.386Z,995.76
2017-08-07T10:28:42.770Z,995.73
2017-08-07T10:29:42.768Z,995.79
2017-08-07T10:30:32.376Z,995.71
2017-08-07T10:31:32.363Z,995.73
2017-08-07T10:32:42.834Z,995.72
2017-08-07T10:33:42.716Z,995.67
2017-08-07T10:34:32.423Z,995.67
2017-08-07T10:35:32.392Z,995.61
2017-08-07T10:36:42.723Z,995.61
2017-08-07T10:37:42.934Z,995.62
2017-08-07T10:38:32.369Z,995.64
2017-08-07T10:39:32.385Z,995.61
2017-08-07T10:40:42.818Z,995.59
2017-08-07T10:41:42.970Z,995.61
2017-08-07T10:42:32.475Z,995.58
2017-08-07T10:43:42.801Z,995.54
2017-08-07T10:44:42.841Z,995.50
2017-08-07T10:45:32.399Z,995.48
2017-08-07T10:46:32.455Z,995.59
2017-08-07T10:47:42.918Z,995.60
2017-08-07T10:48:42.798Z,995.51
2017-08-07T10:49:32.456Z,995.48
2017-08-07T10:50:32.414Z,995.36
2017-08-07T10:51:42.850Z,995.41
2017-08-07T10:52:42.887Z,995.42
2017-08-07T10:53:32.373Z,995.37
2017-08-07T10:54:32.435Z,995.34
2017-08-07T10:55:42.862Z,995.44
2017-08-07T10:56:42.896Z,995.33
2017-08-07T10:57:32.727Z,995.33
2017-08-07T10:58:32.459Z,995.43
2017-08-07T10:59:42.798Z,995.42
2017-08-07T11:00:42.966Z,995.44
2017-08-07T11:01:32.502Z,995.42
2017-08-07T11:02:32.634Z,995.33
2017-08-07T11:03:42.854Z,995.34
2017-08-07T11:04:42.783Z,995.32
2017-08-07T11:05:32.526Z,995.39
2017-08-07T11:06:32.426Z,995.41
2017-08-07T11:07:42.935Z,995.35
2017-08-07T11:08:32.457Z,995.33
2017-08-07T11:09:32.451Z,995.35
2017-08-07T11:10:42.933Z,995.29
2017-08-07T11:11:42.944Z,995.31
2017-08-07T11:12:32.555Z,995.33
2017-08-07T11:13:32.491Z,995.24
2017-08-07T11:14:42.850Z,995.28
2017-08-07T11:15:42.919Z,995.25
2017-08-07T11:16:32.489Z,995.24
2017-08-07T11:17:42.929Z,995.27
2017-08-07T11:18:42.917Z,995.25
2017-08-07T11:19:32.543Z,995.24
2017-08-07T11:20:32.494Z,995.27
2017-08-07T11:21:42.889Z,995.20
2017-08-07T11:22:42.917Z,995.09
2017-08-07T11:23:32.469Z,995.07
2017-08-07T11:24:32.516Z,995.06
2017-08-07T11:25:42.965Z,995.09
2017-08-07T11:26:32.538Z,995.07
2017-08-07T11:27:32.588Z,995.09
2017-08-07T11:28:42.910Z,995.15
2017-08-07T11:29:42.975Z,995.05
2017-08-07T11:30:32.634Z,995.00
2017-08-07T11:31:32.523Z,995.01
2017-08-07T11:32:43.086Z,994.97
2017-08-07T11:33:42.877Z,994.96
2017-08-07T11:34:32.495Z,995.04
2017-08-07T11:35:32.621Z,994.88
2017-08-07T11:36:42.920Z,994.99
2017-08-07T11:37:43.052Z,994.89
2017-08-07T11:38:32.574Z,994.95
2017-08-07T11:39:32.637Z,994.99
2017-08-07T11:40:42.930Z,994.95
2017-08-07T11:41:32.487Z,994.90
2017-08-07T11:42:32.660Z,994.86
2017-08-07T11:43:43.041Z,994.92
2017-08-07T11:44:42.934Z,994.93
2017-08-07T11:45:32.613Z,994.92
2017-08-07T11:46:32.551Z,994.98
2017-08-07T11:47:43.106Z,994.90
2017-08-07T11:48:43.056Z,994.91
2017-08-07T11:49:32.593Z,994.82
2017-08-07T11:50:42.933Z,994.80
2017-08-07T11:51:43.043Z,994.83
2017-08-07T11:52:32.667Z,994.86
2017-08-07T11:53:32.602Z,994.75
2017-08-07T11:54:42.971Z,994.77
2017-08-07T11:57:31.226Z,994.74
2017-08-07T11:58:02.356Z,994.75
2017-08-07T11:59:00.986Z,994.71
2017-08-07T11:59:42.975Z,994.72
2017-08-07T12:00:32.659Z,994.66
2017-08-07T12:01:32.591Z,994.66
2017-08-07T12:02:43.118Z,994.69
2017-08-07T12:03:43.071Z,994.72
2017-08-07T12:04:32.642Z,994.71
2017-08-07T12:05:32.653Z,994.72
2017-08-07T12:06:43.011Z,994.69
2017-08-07T12:07:43.044Z,994.67
2017-08-07T12:08:32.707Z,994.67
2017-08-07T12:09:32.686Z,994.65
2017-08-07T12:10:43.055Z,994.63
2017-08-07T12:11:43.010Z,994.72
2017-08-07T12:12:32.778Z,994.68
2017-08-07T12:13:32.703Z,994.66
2017-08-07T12:14:43.026Z,994.68
2017-08-07T12:15:43.083Z,994.73
2017-08-07T12:16:32.744Z,994.80
2017-08-07T12:17:32.706Z,994.69
2017-08-07T12:18:43.032Z,994.72
2017-08-07T12:19:43.091Z,994.68
2017-08-07T12:20:32.680Z,994.55
2017-08-07T12:21:32.662Z,994.59
2017-08-07T12:22:43.147Z,994.66
2017-08-07T12:23:43.253Z,994.60
2017-08-07T12:24:32.650Z,994.59
2017-08-07T12:25:43.057Z,994.65
2017-08-07T12:26:43.059Z,994.66
2017-08-07T12:27:32.788Z,994.67
2017-08-07T12:28:32.698Z,994.62
2017-08-07T12:29:43.085Z,994.67
2017-08-07T12:30:43.092Z,994.64
2017-08-07T12:31:32.698Z,994.57
2017-08-07T12:32:33.076Z,994.73
2017-08-07T12:33:43.148Z,994.62
2017-08-07T12:34:32.740Z,994.65
2017-08-07T12:35:32.726Z,994.71
2017-08-07T12:36:43.090Z,994.64
2017-08-07T12:37:43.175Z,994.68
2017-08-07T12:38:32.756Z,994.61
2017-08-07T12:39:32.720Z,994.55
2017-08-07T12:40:43.162Z,994.56
2017-08-07T12:41:43.129Z,994.55
2017-08-07T12:42:32.811Z,994.56
2017-08-07T12:43:32.861Z,994.56
2017-08-07T12:44:43.109Z,994.58
2017-08-07T12:45:43.170Z,994.42
2017-08-07T12:46:32.849Z,994.56
2017-08-07T12:47:32.719Z,994.54
2017-08-07T12:48:43.267Z,994.52
2017-08-07T12:49:43.107Z,994.47
2017-08-07T12:50:32.781Z,994.42
2017-08-07T12:51:32.823Z,994.45
2017-08-07T12:52:43.162Z,994.46
2017-08-07T12:53:43.207Z,994.56
2017-08-07T12:54:32.899Z,994.54
2017-08-07T12:55:32.766Z,994.53
2017-08-07T12:56:43.837Z,994.47
2017-08-07T12:57:32.824Z,994.55
2017-08-07T12:58:32.795Z,994.46
2017-08-07T12:59:43.252Z,994.38
2017-08-07T13:00:43.230Z,994.47
2017-08-07T13:01:32.822Z,994.34
2017-08-07T13:02:32.767Z,987.36
2017-08-07T13:03:43.191Z,994.35
2017-08-07T13:04:43.236Z,994.34
2017-08-07T13:05:32.790Z,994.37
2017-08-07T13:06:32.816Z,994.34
2017-08-07T13:07:43.227Z,994.35
2017-08-07T13:08:32.760Z,994.25
2017-08-07T13:09:32.890Z,994.30
2017-08-07T13:10:43.310Z,994.27
2017-08-07T13:11:43.261Z,994.33
2017-08-07T13:12:32.837Z,994.34
2017-08-07T13:13:32.814Z,994.33
2017-08-07T13:14:43.230Z,994.37
2017-08-07T13:15:43.466Z,994.30
2017-08-07T13:16:32.871Z,994.29
2017-08-07T13:17:43.284Z,994.23
2017-08-07T13:18:43.298Z,994.19
2017-08-07T13:19:32.931Z,994.24
2017-08-07T13:20:32.852Z,994.26
2017-08-07T13:21:43.233Z,994.23
2017-08-07T13:22:43.235Z,994.26
2017-08-07T13:23:33.070Z,994.29
2017-08-07T13:24:32.923Z,994.20
2017-08-07T13:25:43.485Z,994.21
2017-08-07T13:26:32.930Z,994.19
2017-08-07T13:27:32.889Z,994.20
2017-08-07T13:28:43.312Z,994.23
2017-08-07T13:29:43.359Z,994.22
2017-08-07T13:30:32.938Z,994.22
2017-08-07T13:31:32.898Z,994.26
2017-08-07T13:32:43.287Z,994.24
2017-08-07T13:33:43.303Z,994.17
2017-08-07T13:34:33.014Z,994.15
2017-08-07T13:35:32.915Z,994.13
2017-08-07T13:36:43.304Z,994.15
2017-08-07T13:37:43.397Z,994.12
2017-08-07T13:38:32.890Z,994.15
2017-08-07T13:39:32.979Z,994.12
2017-08-07T13:40:43.357Z,994.04
2017-08-07T13:41:32.924Z,994.09
2017-08-07T13:42:33.000Z,994.06
2017-08-07T13:43:43.338Z,994.08
2017-08-07T13:44:43.354Z,994.08
2017-08-07T13:45:32.970Z,994.07
2017-08-07T13:46:32.961Z,994.06
2017-08-07T13:47:43.748Z,994.06
2017-08-07T13:48:32.960Z,994.11
2017-08-07T13:49:33.048Z,994.10
2017-08-07T17:11:29.617Z,993.97
2017-08-07T17:12:10.895Z,992.51
2017-08-07T17:12:54.881Z,992.54
2017-08-07T17:13:33.749Z,992.55
2017-08-07T17:14:33.964Z,992.57
2017-08-07T17:15:44.997Z,992.58
2017-08-07T17:16:45.433Z,992.52
2017-08-07T17:17:34.181Z,992.55
2017-08-07T17:18:35.713Z,992.56
2017-08-07T17:19:44.614Z,992.51
2017-08-07T17:20:44.799Z,992.52
2017-08-07T17:21:36.410Z,992.54
2017-08-07T19:19:50.146Z,992.70
2017-08-07T19:20:32.521Z,992.70
2017-08-07T19:21:32.442Z,992.66
2017-08-07T19:22:43.962Z,992.76
2017-08-07T19:23:44.122Z,992.69
2017-08-07T19:24:34.004Z,992.71
2017-08-07T19:25:33.860Z,992.70